createdAt,value
2023-02-12T00:00:26.695Z,97673.00
2023-02-12T00:01:25.748Z,97673.00
2023-02-12T00:02:26.889Z,97671.00
2023-02-12T00:03:26.936Z,97673.00
2023-02-12T00:04:26.915Z,97673.00
2023-02-12T00:05:26.969Z,97673.00
2023-02-12T00:06:27.047Z,97671.00
2023-02-12T00:07:27.111Z,97675.00
2023-02-12T00:08:26.112Z,97677.00
2023-02-12T00:09:27.174Z,97677.00
2023-02-12T00:10:26.246Z,97675.00
2023-02-12T00:11:27.295Z,97671.00
2023-02-12T00:12:27.330Z,97675.00
2023-02-12T00:13:27.406Z,97675.00
2023-02-12T00:14:27.437Z,97675.00
2023-02-12T00:15:27.562Z,97671.00
2023-02-12T00:16:27.578Z,97675.00
2023-02-12T00:17:27.599Z,97669.00
2023-02-12T00:18:27.641Z,97671.00
2023-02-12T00:19:27.719Z,97667.00
2023-02-12T00:20:27.749Z,97667.00
2023-02-12T00:21:26.793Z,97669.00
2023-02-12T00:22:27.897Z,97669.00
2023-02-12T00:23:27.898Z,97673.00
2023-02-12T00:24:27.994Z,97675.00
2023-02-12T00:25:27.017Z,97675.00
2023-02-12T00:26:28.072Z,97679.00
2023-02-12T00:27:27.130Z,97679.00
2023-02-12T00:28:27.289Z,97681.00
2023-02-12T00:29:28.251Z,97687.00
2023-02-12T00:30:28.345Z,97683.00
2023-02-12T00:31:27.555Z,97685.00
2023-02-12T00:32:27.391Z,97681.00
2023-02-12T00:33:27.445Z,97683.00
2023-02-12T00:34:28.504Z,97683.00
2023-02-12T00:35:28.555Z,97685.00
2023-02-12T00:36:28.624Z,97685.00
2023-02-12T00:37:28.691Z,97683.00
2023-02-12T00:38:28.760Z,97685.00
2023-02-12T00:39:28.772Z,97685.00
2023-02-12T00:40:28.813Z,97687.00
2023-02-12T00:41:28.876Z,97687.00
2023-02-12T00:42:28.935Z,97685.00
2023-02-12T00:43:28.983Z,97683.00
2023-02-12T00:44:28.038Z,97683.00
2023-02-12T00:45:29.085Z,97679.00
2023-02-12T00:46:29.210Z,97677.00
2023-02-12T00:47:28.203Z,97675.00
2023-02-12T00:48:28.235Z,97673.00
2023-02-12T00:49:29.300Z,97675.00
2023-02-12T00:50:30.766Z,97675.00
2023-02-12T00:51:28.350Z,97673.00
2023-02-12T00:52:29.361Z,97675.00
2023-02-12T00:53:29.329Z,97679.00
2023-02-12T00:54:28.341Z,97679.00
2023-02-12T00:55:29.316Z,97683.00
2023-02-12T00:56:28.341Z,97681.00
2023-02-12T00:57:29.338Z,97683.00
2023-02-12T00:58:29.322Z,97679.00
2023-02-12T00:59:29.293Z,97679.00
2023-02-12T01:00:29.280Z,97679.00
2023-02-12T01:01:29.415Z,97679.00
2023-02-12T01:02:29.267Z,97681.00
2023-02-12T01:03:28.260Z,97681.00
2023-02-12T01:04:29.245Z,97681.00
2023-02-12T01:05:29.250Z,97683.00
2023-02-12T01:06:29.311Z,97681.00
2023-02-12T01:07:29.245Z,97683.00
2023-02-12T01:08:29.229Z,97685.00
2023-02-12T01:09:28.213Z,97685.00
2023-02-12T01:10:28.308Z,97687.00
2023-02-12T01:11:29.306Z,97689.00
2023-02-12T01:12:29.216Z,97693.00
2023-02-12T01:13:29.197Z,97695.00
2023-02-12T01:14:28.187Z,97693.00
2023-02-12T01:15:29.184Z,97697.00
2023-02-12T01:16:28.342Z,97697.00
2023-02-12T01:17:29.275Z,97695.00
2023-02-12T01:18:28.325Z,97691.00
2023-02-12T01:19:29.402Z,97693.00
2023-02-12T01:20:29.449Z,97691.00
2023-02-12T01:21:29.510Z,97691.00
2023-02-12T01:22:29.561Z,97691.00
2023-02-12T01:23:29.623Z,97689.00
2023-02-12T01:24:28.672Z,97691.00
2023-02-12T01:25:29.747Z,97693.00
2023-02-12T01:26:28.866Z,97693.00
2023-02-12T01:27:29.878Z,97693.00
2023-02-12T01:28:29.999Z,97693.00
2023-02-12T01:29:29.001Z,97693.00
2023-02-12T01:30:29.044Z,97687.00
2023-02-12T01:31:29.278Z,97683.00
2023-02-12T01:32:30.182Z,97679.00
2023-02-12T01:33:30.217Z,97679.00
2023-02-12T01:34:29.298Z,97677.00
2023-02-12T01:35:30.330Z,97677.00
2023-02-12T01:36:30.405Z,97681.00
2023-02-12T01:37:30.460Z,97679.00
2023-02-12T01:38:30.535Z,97681.00
2023-02-12T01:39:29.575Z,97683.00
2023-02-12T01:40:29.634Z,97683.00
2023-02-12T01:41:30.713Z,97683.00
2023-02-12T01:42:30.766Z,97683.00
2023-02-12T01:43:30.802Z,97679.00
2023-02-12T01:44:30.865Z,97677.00
2023-02-12T01:45:30.928Z,97675.00
2023-02-12T01:46:31.041Z,97671.00
2023-02-12T01:47:31.066Z,97675.00
2023-02-12T01:48:31.107Z,97673.00
2023-02-12T01:49:30.198Z,97675.00
2023-02-12T01:50:31.234Z,97677.00
2023-02-12T01:51:31.278Z,97681.00
2023-02-12T01:52:31.357Z,97683.00
2023-02-12T01:53:31.414Z,97685.00
2023-02-12T01:54:31.470Z,97687.00
2023-02-12T01:55:31.529Z,97689.00
2023-02-12T01:56:31.627Z,97687.00
2023-02-12T01:57:30.647Z,97683.00
2023-02-12T01:58:31.752Z,97683.00
2023-02-12T01:59:31.761Z,97681.00
2023-02-12T02:00:31.826Z,97679.00
2023-02-12T02:01:31.998Z,97679.00
2023-02-12T02:02:32.001Z,97675.00
2023-02-12T02:03:31.063Z,97675.00
2023-02-12T02:04:32.081Z,97675.00
2023-02-12T02:05:32.140Z,97673.00
2023-02-12T02:06:32.194Z,97671.00
2023-02-12T02:07:32.323Z,97671.00
2023-02-12T02:08:32.329Z,97669.00
2023-02-12T02:09:32.397Z,97673.00
2023-02-12T02:10:32.444Z,97673.00
2023-02-12T02:11:31.502Z,97675.00
2023-02-12T02:12:31.554Z,97675.00
2023-02-12T02:13:32.617Z,97675.00
2023-02-12T02:14:32.752Z,97677.00
2023-02-12T02:15:31.732Z,97679.00
2023-02-12T02:16:32.848Z,97681.00
2023-02-12T02:17:32.860Z,97683.00
2023-02-12T02:18:31.952Z,97687.00
2023-02-12T02:19:32.979Z,97687.00
2023-02-12T02:20:33.034Z,97691.00
2023-02-12T02:21:32.098Z,97693.00
2023-02-12T02:22:33.169Z,97695.00
2023-02-12T02:23:33.207Z,97697.00
2023-02-12T02:24:33.274Z,97697.00
2023-02-12T02:25:32.332Z,97697.00
2023-02-12T02:26:33.404Z,97697.00
2023-02-12T02:27:33.459Z,97697.00
2023-02-12T02:28:33.631Z,97699.00
2023-02-12T02:29:33.588Z,97701.00
2023-02-12T02:30:33.773Z,97701.00
2023-02-12T02:31:33.822Z,97705.00
2023-02-12T02:32:32.785Z,97705.00
2023-02-12T02:33:33.855Z,97703.00
2023-02-12T02:34:33.902Z,97703.00
2023-02-12T02:35:33.950Z,97699.00
2023-02-12T02:36:33.018Z,97693.00
2023-02-12T02:37:34.073Z,97693.00
2023-02-12T02:38:33.139Z,97689.00
2023-02-12T02:39:33.269Z,97687.00
2023-02-12T02:40:34.266Z,97685.00
2023-02-12T02:41:33.316Z,97681.00
2023-02-12T02:42:34.377Z,97677.00
2023-02-12T02:43:33.455Z,97675.00
2023-02-12T02:44:33.513Z,97671.00
2023-02-12T02:45:34.613Z,97667.00
2023-02-12T02:46:33.696Z,97667.00
2023-02-12T02:47:34.720Z,97665.00
2023-02-12T02:48:34.766Z,97663.00
2023-02-12T02:49:34.809Z,97661.00
2023-02-12T02:50:34.879Z,97657.00
2023-02-12T02:51:34.951Z,97654.00
2023-02-12T02:52:34.005Z,97652.00
2023-02-12T02:53:35.058Z,97650.00
2023-02-12T02:54:35.130Z,97648.00
2023-02-12T02:55:35.186Z,97646.00
2023-02-12T02:56:34.312Z,97642.00
2023-02-12T02:57:35.351Z,97640.00
2023-02-12T02:58:34.350Z,97636.00
2023-02-12T02:59:35.427Z,97646.00
2023-02-12T03:00:35.518Z,97650.00
2023-02-12T03:01:34.545Z,97657.00
2023-02-12T03:02:35.654Z,97661.00
2023-02-12T03:03:35.695Z,97663.00
2023-02-12T03:04:35.731Z,97665.00
2023-02-12T03:05:35.788Z,97663.00
2023-02-12T03:06:35.853Z,97669.00
2023-02-12T03:07:35.923Z,97667.00
2023-02-12T03:08:35.987Z,97669.00
2023-02-12T03:09:36.068Z,97669.00
2023-02-12T03:10:35.078Z,97669.00
2023-02-12T03:11:36.163Z,97667.00
2023-02-12T03:12:36.213Z,97667.00
2023-02-12T03:13:36.266Z,97667.00
2023-02-12T03:14:35.359Z,97667.00
2023-02-12T03:15:35.405Z,97671.00
2023-02-12T03:16:36.515Z,97675.00
2023-02-12T03:17:35.510Z,97677.00
2023-02-12T03:18:36.576Z,97679.00
2023-02-12T03:19:36.696Z,97679.00
2023-02-12T03:20:36.702Z,97679.00
2023-02-12T03:21:36.767Z,97677.00
2023-02-12T03:22:36.840Z,97677.00
2023-02-12T03:23:36.901Z,97679.00
2023-02-12T03:24:35.955Z,97681.00
2023-02-12T03:25:37.021Z,97687.00
2023-02-12T03:26:36.077Z,97687.00
2023-02-12T03:27:36.157Z,97695.00
2023-02-12T03:28:36.310Z,97699.00
2023-02-12T03:29:36.271Z,97703.00
2023-02-12T03:30:37.358Z,97703.00
2023-02-12T03:31:37.456Z,97701.00
2023-02-12T03:32:37.476Z,97701.00
2023-02-12T03:33:37.516Z,97699.00
2023-02-12T03:34:37.581Z,97699.00
2023-02-12T03:35:37.672Z,97701.00
2023-02-12T03:36:36.705Z,97701.00
2023-02-12T03:37:36.774Z,97701.00
2023-02-12T03:38:37.827Z,97703.00
2023-02-12T03:39:37.900Z,97705.00
2023-02-12T03:40:37.973Z,97705.00
2023-02-12T03:41:37.019Z,97707.00
2023-02-12T03:42:37.081Z,97711.00
2023-02-12T03:43:37.127Z,97714.00
2023-02-12T03:44:37.182Z,97726.00
2023-02-12T03:45:37.293Z,97730.00
2023-02-12T03:46:37.300Z,97734.00
2023-02-12T03:47:38.359Z,97736.00
2023-02-12T03:48:38.436Z,97736.00
2023-02-12T03:49:38.501Z,97738.00
2023-02-12T03:50:38.534Z,97738.00
2023-02-12T03:51:37.626Z,97742.00
2023-02-12T03:52:37.650Z,97742.00
2023-02-12T03:53:38.718Z,97750.00
2023-02-12T03:54:38.746Z,97748.00
2023-02-12T03:55:38.821Z,97748.00
2023-02-12T03:56:38.855Z,97748.00
2023-02-12T03:57:37.908Z,97744.00
2023-02-12T03:58:38.962Z,97744.00
2023-02-12T03:59:39.020Z,97740.00
2023-02-12T04:00:38.060Z,97738.00
2023-02-12T04:01:39.243Z,97738.00
2023-02-12T04:02:38.165Z,97740.00
2023-02-12T04:03:39.202Z,97738.00
2023-02-12T04:04:39.355Z,97734.00
2023-02-12T04:05:39.288Z,97736.00
2023-02-12T04:06:39.306Z,97734.00
2023-02-12T04:07:39.368Z,97730.00
2023-02-12T04:08:38.376Z,97730.00
2023-02-12T04:09:39.429Z,97728.00
2023-02-12T04:10:39.459Z,97728.00
2023-02-12T04:11:39.520Z,97726.00
2023-02-12T04:12:39.571Z,97718.00
2023-02-12T04:13:39.593Z,97712.00
2023-02-12T04:14:39.659Z,97712.00
2023-02-12T04:15:39.695Z,97716.00
2023-02-12T04:16:39.753Z,97712.00
2023-02-12T04:17:39.769Z,97712.00
2023-02-12T04:18:39.805Z,97714.00
2023-02-12T04:19:39.898Z,97712.00
2023-02-12T04:20:39.916Z,97716.00
2023-02-12T04:21:39.927Z,97714.00
2023-02-12T04:22:39.944Z,97716.00
2023-02-12T04:23:40.147Z,97716.00
2023-02-12T04:24:40.042Z,97718.00
2023-02-12T04:25:40.089Z,97716.00
2023-02-12T04:26:40.097Z,97716.00
2023-02-12T04:27:39.130Z,97716.00
2023-02-12T04:28:40.235Z,97714.00
2023-02-12T04:29:39.247Z,97712.00
2023-02-12T04:30:40.457Z,97712.00
2023-02-12T04:31:39.464Z,97712.00
2023-02-12T04:32:40.466Z,97711.00
2023-02-12T04:33:40.419Z,97709.00
2023-02-12T04:34:40.489Z,97709.00
2023-02-12T04:35:39.522Z,97705.00
2023-02-12T04:36:39.583Z,97705.00
2023-02-12T04:37:40.645Z,97703.00
2023-02-12T04:38:39.694Z,97709.00
2023-02-12T04:39:40.728Z,97714.00
2023-02-12T04:40:40.753Z,97714.00
2023-02-12T04:41:40.785Z,97728.00
2023-02-12T04:42:40.827Z,97728.00
2023-02-12T04:43:39.874Z,97728.00
2023-02-12T04:44:39.896Z,97730.00
2023-02-12T04:45:40.044Z,97730.00
2023-02-12T04:46:40.952Z,97728.00
2023-02-12T04:47:41.000Z,97728.00
2023-02-12T04:48:41.032Z,97732.00
2023-02-12T04:49:41.059Z,97734.00
2023-02-12T04:50:41.092Z,97740.00
2023-02-12T04:51:41.140Z,97738.00
2023-02-12T04:52:41.186Z,97740.00
2023-02-12T04:53:40.221Z,97742.00
2023-02-12T04:54:41.266Z,97738.00
2023-02-12T04:55:41.326Z,97740.00
2023-02-12T04:56:41.354Z,97740.00
2023-02-12T04:57:40.388Z,97744.00
2023-02-12T04:58:41.416Z,97742.00
2023-02-12T04:59:41.465Z,97744.00
2023-02-12T05:00:40.489Z,97746.00
2023-02-12T05:01:41.617Z,97746.00
2023-02-12T05:02:40.566Z,97746.00
2023-02-12T05:03:41.630Z,97744.00
2023-02-12T05:04:40.703Z,97744.00
2023-02-12T05:05:40.641Z,97742.00
2023-02-12T05:06:40.690Z,97744.00
2023-02-12T05:07:41.719Z,97742.00
2023-02-12T05:08:41.788Z,97746.00
2023-02-12T05:09:41.789Z,97744.00
2023-02-12T05:10:41.814Z,97744.00
2023-02-12T05:11:41.876Z,97742.00
2023-02-12T05:12:41.876Z,97738.00
2023-02-12T05:13:40.908Z,97738.00
2023-02-12T05:14:41.932Z,97736.00
2023-02-12T05:15:41.986Z,97734.00
2023-02-12T05:16:42.005Z,97734.00
2023-02-12T05:17:42.025Z,97730.00
2023-02-12T05:18:42.059Z,97728.00
2023-02-12T05:19:42.110Z,97730.00
2023-02-12T05:20:42.148Z,97728.00
2023-02-12T05:21:42.211Z,97730.00
2023-02-12T05:22:41.241Z,97732.00
2023-02-12T05:23:42.260Z,97736.00
2023-02-12T05:24:42.308Z,97738.00
2023-02-12T05:25:41.359Z,97738.00
2023-02-12T05:26:41.396Z,97736.00
2023-02-12T05:27:42.470Z,97738.00
2023-02-12T05:28:42.466Z,97740.00
2023-02-12T05:29:42.486Z,97740.00
2023-02-12T05:30:41.519Z,97742.00
2023-02-12T05:31:42.658Z,97744.00
2023-02-12T05:32:42.596Z,97746.00
2023-02-12T05:33:42.589Z,97746.00
2023-02-12T05:34:42.600Z,97748.00
2023-02-12T05:35:42.635Z,97748.00
2023-02-12T05:36:41.644Z,97750.00
2023-02-12T05:37:41.675Z,97750.00
2023-02-12T05:38:42.686Z,97752.00
2023-02-12T05:39:42.714Z,97752.00
2023-02-12T05:40:41.734Z,97754.00
2023-02-12T05:41:42.786Z,97756.00
2023-02-12T05:42:42.769Z,97756.00
2023-02-12T05:43:42.803Z,97758.00
2023-02-12T05:44:42.780Z,97758.00
2023-02-12T05:45:42.806Z,97758.00
2023-02-12T05:46:42.885Z,97760.00
2023-02-12T05:47:42.841Z,97760.00
2023-02-12T05:48:42.838Z,97762.00
2023-02-12T05:49:41.850Z,97760.00
2023-02-12T05:50:42.861Z,97758.00
2023-02-12T05:51:42.887Z,97762.00
2023-02-12T05:52:42.934Z,97756.00
2023-02-12T05:53:42.908Z,97760.00
2023-02-12T05:54:42.920Z,97760.00
2023-02-12T05:55:42.950Z,97762.00
2023-02-12T05:56:41.972Z,97764.00
2023-02-12T05:57:43.013Z,97764.00
2023-02-12T05:58:42.988Z,97766.00
2023-02-12T05:59:42.010Z,97764.00
2023-02-12T06:00:42.990Z,97764.00
2023-02-12T06:01:43.008Z,97764.00
2023-02-12T06:02:43.039Z,97764.00
2023-02-12T06:03:43.052Z,97766.00
2023-02-12T06:04:42.025Z,97766.00
2023-02-12T06:05:43.016Z,97768.00
2023-02-12T06:06:43.017Z,97770.00
2023-02-12T06:07:43.043Z,97770.00
2023-02-12T06:08:43.055Z,97770.00
2023-02-12T06:09:43.095Z,97772.00
2023-02-12T06:10:43.110Z,97773.00
2023-02-12T06:11:42.085Z,97773.00
2023-02-12T06:12:43.154Z,97773.00
2023-02-12T06:13:42.113Z,97772.00
2023-02-12T06:14:43.136Z,97770.00
2023-02-12T06:15:43.176Z,97768.00
2023-02-12T06:16:43.132Z,97770.00
2023-02-12T06:17:43.173Z,97770.00
2023-02-12T06:18:43.163Z,97772.00
2023-02-12T06:19:43.105Z,97775.00
2023-02-12T06:20:42.108Z,97779.00
2023-02-12T06:21:43.124Z,97781.00
2023-02-12T06:22:43.157Z,97783.00
2023-02-12T06:23:43.138Z,97783.00
2023-02-12T06:24:43.167Z,97785.00
2023-02-12T06:25:42.149Z,97785.00
2023-02-12T06:26:43.158Z,97785.00
2023-02-12T06:27:43.276Z,97789.00
2023-02-12T06:28:43.179Z,97789.00
2023-02-12T06:29:43.216Z,97791.00
2023-02-12T06:30:43.234Z,97791.00
2023-02-12T06:31:43.378Z,97791.00
2023-02-12T06:32:43.175Z,97791.00
2023-02-12T06:33:42.237Z,97791.00
2023-02-12T06:34:43.199Z,97793.00
2023-02-12T06:35:43.218Z,97791.00
2023-02-12T06:36:43.235Z,97791.00
2023-02-12T06:37:43.191Z,97791.00
2023-02-12T06:38:42.196Z,97789.00
2023-02-12T06:39:43.228Z,97787.00
2023-02-12T06:40:42.190Z,97789.00
2023-02-12T06:41:42.220Z,97785.00
2023-02-12T06:42:43.273Z,97791.00
2023-02-12T06:43:43.220Z,97787.00
2023-02-12T06:44:43.271Z,97793.00
2023-02-12T06:45:43.227Z,97791.00
2023-02-12T06:46:42.325Z,97797.00
2023-02-12T06:47:43.282Z,97793.00
2023-02-12T06:48:43.257Z,97791.00
2023-02-12T06:49:43.281Z,97793.00
2023-02-12T06:50:43.230Z,97793.00
2023-02-12T06:51:43.248Z,97793.00
2023-02-12T06:52:43.278Z,97795.00
2023-02-12T06:53:42.234Z,97797.00
2023-02-12T06:54:43.243Z,97799.00
2023-02-12T06:55:43.206Z,97799.00
2023-02-12T06:56:42.228Z,97799.00
2023-02-12T06:57:43.214Z,97801.00
2023-02-12T06:58:42.234Z,97799.00
2023-02-12T06:59:42.216Z,97799.00
2023-02-12T07:00:43.264Z,97803.00
2023-02-12T07:01:43.315Z,97805.00
2023-02-12T07:02:43.220Z,97803.00
2023-02-12T07:03:43.332Z,97809.00
2023-02-12T07:04:43.242Z,97809.00
2023-02-12T07:05:43.285Z,97811.00
2023-02-12T07:06:43.291Z,97809.00
2023-02-12T07:07:43.282Z,97809.00
2023-02-12T07:08:43.261Z,97807.00
2023-02-12T07:09:42.241Z,97805.00
2023-02-12T07:10:43.275Z,97807.00
2023-02-12T07:11:43.325Z,97809.00
2023-02-12T07:12:43.256Z,97807.00
2023-02-12T07:13:42.280Z,97809.00
2023-02-12T07:14:43.278Z,97811.00
2023-02-12T07:15:43.312Z,97811.00
2023-02-12T07:16:43.424Z,97813.00
2023-02-12T07:17:43.367Z,97811.00
2023-02-12T07:18:43.337Z,97813.00
2023-02-12T07:19:43.403Z,97813.00
2023-02-12T07:20:43.386Z,97815.00
2023-02-12T07:21:43.400Z,97813.00
2023-02-12T07:22:43.428Z,97811.00
2023-02-12T07:23:43.463Z,97811.00
2023-02-12T07:24:42.456Z,97811.00
2023-02-12T07:25:43.492Z,97809.00
2023-02-12T07:26:43.493Z,97809.00
2023-02-12T07:27:43.490Z,97809.00
2023-02-12T07:28:43.524Z,97809.00
2023-02-12T07:29:43.503Z,97813.00
2023-02-12T07:30:43.589Z,97815.00
2023-02-12T07:31:42.630Z,97819.00
2023-02-12T07:32:42.586Z,97819.00
2023-02-12T07:33:43.579Z,97819.00
2023-02-12T07:34:42.594Z,97815.00
2023-02-12T07:35:43.607Z,97819.00
2023-02-12T07:36:43.611Z,97815.00
2023-02-12T07:37:42.637Z,97813.00
2023-02-12T07:38:43.632Z,97815.00
2023-02-12T07:39:42.632Z,97815.00
2023-02-12T07:40:42.651Z,97813.00
2023-02-12T07:41:43.643Z,97817.00
2023-02-12T07:42:42.680Z,97819.00
2023-02-12T07:43:43.738Z,97819.00
2023-02-12T07:44:42.693Z,97819.00
2023-02-12T07:45:42.746Z,97815.00
2023-02-12T07:46:45.691Z,97813.00
2023-02-12T07:47:42.694Z,97813.00
2023-02-12T07:48:42.688Z,97811.00
2023-02-12T07:49:43.690Z,97815.00
2023-02-12T07:50:43.676Z,97811.00
2023-02-12T07:51:43.700Z,97813.00
2023-02-12T07:52:42.666Z,97811.00
2023-02-12T07:53:43.666Z,97811.00
2023-02-12T07:54:43.648Z,97813.00
2023-02-12T07:55:42.629Z,97811.00
2023-02-12T07:56:42.616Z,97811.00
2023-02-12T07:57:43.608Z,97811.00
2023-02-12T07:58:43.610Z,97809.00
2023-02-12T07:59:42.604Z,97805.00
2023-02-12T08:00:43.592Z,97803.00
2023-02-12T08:01:42.585Z,97801.00
2023-02-12T08:02:43.642Z,97799.00
2023-02-12T08:03:42.579Z,97797.00
2023-02-12T08:04:42.688Z,97795.00
2023-02-12T08:05:43.601Z,97795.00
2023-02-12T08:06:43.602Z,97795.00
2023-02-12T08:07:43.656Z,97797.00
2023-02-12T08:08:42.647Z,97797.00
2023-02-12T08:09:43.645Z,97795.00
2023-02-12T08:10:43.665Z,97797.00
2023-02-12T08:11:42.668Z,97797.00
2023-02-12T08:12:43.677Z,97797.00
2023-02-12T08:13:43.757Z,97795.00
2023-02-12T08:14:42.702Z,97795.00
2023-02-12T08:15:43.714Z,97793.00
2023-02-12T08:16:43.813Z,97795.00
2023-02-12T08:17:43.718Z,97799.00
2023-02-12T08:18:43.757Z,97801.00
2023-02-12T08:19:43.767Z,97799.00
2023-02-12T08:20:43.781Z,97797.00
2023-02-12T08:21:43.810Z,97795.00
2023-02-12T08:22:42.832Z,97795.00
2023-02-12T08:23:42.893Z,97795.00
2023-02-12T08:24:43.887Z,97797.00
2023-02-12T08:25:42.897Z,97795.00
2023-02-12T08:26:44.002Z,97795.00
2023-02-12T08:27:44.036Z,97793.00
2023-02-12T08:28:44.019Z,97791.00
2023-02-12T08:29:44.029Z,97787.00
2023-02-12T08:30:44.141Z,97787.00
2023-02-12T08:31:43.248Z,97791.00
2023-02-12T08:32:43.119Z,97789.00
2023-02-12T08:33:44.142Z,97787.00
2023-02-12T08:34:43.160Z,97787.00
2023-02-12T08:35:44.171Z,97787.00
2023-02-12T08:36:44.197Z,97787.00
2023-02-12T08:37:43.269Z,97787.00
2023-02-12T08:38:43.304Z,97791.00
2023-02-12T08:39:44.361Z,97791.00
2023-02-12T08:40:43.441Z,97787.00
2023-02-12T08:41:43.469Z,97789.00
2023-02-12T08:42:44.531Z,97789.00
2023-02-12T08:43:44.582Z,97791.00
2023-02-12T08:44:44.651Z,97791.00
2023-02-12T08:45:43.738Z,97789.00
2023-02-12T08:46:43.756Z,97787.00
2023-02-12T08:47:44.828Z,97787.00
2023-02-12T08:48:43.874Z,97787.00
2023-02-12T08:49:44.949Z,97785.00
2023-02-12T08:50:43.976Z,97785.00
2023-02-12T08:51:44.046Z,97781.00
2023-02-12T08:52:45.104Z,97783.00
2023-02-12T08:53:45.160Z,97785.00
2023-02-12T08:54:44.236Z,97783.00
2023-02-12T08:55:44.325Z,97781.00
2023-02-12T08:56:45.366Z,97781.00
2023-02-12T08:57:45.406Z,97785.00
2023-02-12T08:58:45.463Z,97785.00
2023-02-12T08:59:45.564Z,97785.00
2023-02-12T09:00:45.588Z,97785.00
2023-02-12T09:01:45.680Z,97789.00
2023-02-12T09:02:44.817Z,97791.00
2023-02-12T09:03:45.768Z,97791.00
2023-02-12T09:04:45.841Z,97793.00
2023-02-12T09:05:45.911Z,97787.00
2023-02-12T09:06:45.963Z,97785.00
2023-02-12T09:07:46.035Z,97789.00
2023-02-12T09:08:46.104Z,97787.00
2023-02-12T09:09:45.164Z,97785.00
2023-02-12T09:10:46.237Z,97789.00
2023-02-12T09:11:46.261Z,97789.00
2023-02-12T09:12:46.306Z,97787.00
2023-02-12T09:13:46.360Z,97785.00
2023-02-12T09:14:45.422Z,97785.00
2023-02-12T09:15:45.617Z,97783.00
2023-02-12T09:16:45.635Z,97785.00
2023-02-12T09:17:46.587Z,97781.00
2023-02-12T09:18:46.665Z,97785.00
2023-02-12T09:19:46.689Z,97785.00
2023-02-12T09:20:45.765Z,97783.00
2023-02-12T09:21:46.813Z,97781.00
2023-02-12T09:22:45.864Z,97785.00
2023-02-12T09:23:46.921Z,97783.00
2023-02-12T09:24:46.971Z,97783.00
2023-02-12T09:25:46.033Z,97781.00
2023-02-12T09:26:46.083Z,97779.00
2023-02-12T09:27:46.125Z,97781.00
2023-02-12T09:28:46.158Z,97779.00
2023-02-12T09:29:46.216Z,97783.00
2023-02-12T09:30:47.343Z,97781.00
2023-02-12T09:31:47.569Z,97777.00
2023-02-12T09:32:47.353Z,97779.00
2023-02-12T09:33:50.534Z,97779.00
2023-02-12T09:34:47.408Z,97779.00
2023-02-12T09:35:47.388Z,97779.00
2023-02-12T09:36:47.446Z,97783.00
2023-02-12T09:37:47.417Z,97781.00
2023-02-12T09:38:47.425Z,97779.00
2023-02-12T09:39:50.204Z,97783.00
2023-02-12T09:40:47.476Z,97779.00
2023-02-12T09:41:47.459Z,97779.00
2023-02-12T09:42:46.544Z,97779.00
2023-02-12T09:43:47.447Z,97779.00
2023-02-12T09:44:46.447Z,97777.00
2023-02-12T09:45:46.415Z,97779.00
2023-02-12T09:46:47.496Z,97779.00
2023-02-12T09:47:47.404Z,97783.00
2023-02-12T09:48:46.405Z,97783.00
2023-02-12T09:49:47.413Z,97781.00
2023-02-12T09:50:47.435Z,97781.00
2023-02-12T09:51:49.732Z,97781.00
2023-02-12T09:52:47.383Z,97779.00
2023-02-12T09:53:47.396Z,97777.00
2023-02-12T09:54:47.380Z,97777.00
2023-02-12T09:55:47.393Z,97779.00
2023-02-12T09:56:47.356Z,97779.00
2023-02-12T09:57:46.332Z,97777.00
2023-02-12T09:58:47.351Z,97777.00
2023-02-12T09:59:47.339Z,97783.00
2023-02-12T10:00:47.333Z,97777.00
2023-02-12T10:01:47.416Z,97783.00
2023-02-12T10:02:47.315Z,97783.00
2023-02-12T10:03:47.290Z,97785.00
2023-02-12T10:05:00.325Z,97785.00
2023-02-12T10:05:47.292Z,97785.00
2023-02-12T10:06:47.281Z,97785.00
2023-02-12T10:07:47.281Z,97785.00
2023-02-12T10:08:47.265Z,97787.00
2023-02-12T10:09:46.297Z,97787.00
2023-02-12T10:10:47.248Z,97785.00
2023-02-12T10:11:47.246Z,97783.00
2023-02-12T10:12:47.235Z,97783.00
2023-02-12T10:13:47.231Z,97785.00
2023-02-12T10:14:46.255Z,97785.00
2023-02-12T10:15:47.296Z,97785.00
2023-02-12T10:16:46.216Z,97783.00
2023-02-12T10:17:46.207Z,97785.00
2023-02-12T10:18:47.206Z,97785.00
2023-02-12T10:19:47.195Z,97785.00
2023-02-12T10:20:46.215Z,97783.00
2023-02-12T10:21:47.201Z,97785.00
2023-02-12T10:22:56.458Z,97785.00
2023-02-12T10:23:47.180Z,97785.00
2023-02-12T10:24:46.153Z,97781.00
2023-02-12T10:25:47.148Z,97781.00
2023-02-12T10:26:47.148Z,97781.00
2023-02-12T10:27:46.143Z,97779.00
2023-02-12T10:28:47.124Z,97781.00
2023-02-12T10:29:47.111Z,97781.00
2023-02-12T10:30:47.182Z,97779.00
2023-02-12T10:31:47.322Z,97779.00
2023-02-12T10:32:47.087Z,97777.00
2023-02-12T10:33:47.131Z,97779.00
2023-02-12T10:34:47.085Z,97779.00
2023-02-12T10:35:47.087Z,97775.00
2023-02-12T10:36:47.081Z,97773.00
2023-02-12T10:37:46.051Z,97770.00
2023-02-12T10:38:47.328Z,97768.00
2023-02-12T10:39:47.076Z,97770.00
2023-02-12T10:40:47.045Z,97766.00
2023-02-12T10:41:46.021Z,97766.00
2023-02-12T10:42:47.020Z,97764.00
2023-02-12T10:43:47.018Z,97764.00
2023-02-12T10:44:46.048Z,97764.00
2023-02-12T10:45:46.009Z,97760.00
2023-02-12T10:46:46.097Z,97758.00
2023-02-12T10:47:46.977Z,97758.00
2023-02-12T10:48:46.973Z,97752.00
2023-02-12T10:49:46.979Z,97750.00
2023-02-12T10:50:46.966Z,97750.00
2023-02-12T10:51:46.968Z,97748.00
2023-02-12T10:52:46.966Z,97746.00
2023-02-12T10:53:45.962Z,97740.00
2023-02-12T10:54:46.932Z,97738.00
2023-02-12T10:55:47.643Z,97738.00
2023-02-12T10:56:45.922Z,97734.00
2023-02-12T10:57:46.925Z,97730.00
2023-02-12T10:58:46.920Z,97734.00
2023-02-12T10:59:45.914Z,97732.00
2023-02-12T11:00:46.945Z,97730.00
2023-02-12T11:01:45.939Z,97730.00
2023-02-12T11:02:46.909Z,97730.00
2023-02-12T11:03:46.897Z,97726.00
2023-02-12T11:04:46.911Z,97726.00
2023-02-12T11:05:46.906Z,97718.00
2023-02-12T11:06:46.914Z,97714.00
2023-02-12T11:07:46.851Z,97714.00
2023-02-12T11:08:46.853Z,97712.00
2023-02-12T11:09:46.861Z,97714.00
2023-02-12T11:10:46.828Z,97711.00
2023-02-12T11:11:48.433Z,97712.00
2023-02-12T11:12:46.818Z,97709.00
2023-02-12T11:13:46.834Z,97705.00
2023-02-12T11:14:46.807Z,97703.00
2023-02-12T11:15:46.873Z,97699.00
2023-02-12T11:16:46.794Z,97701.00
2023-02-12T11:17:46.787Z,97697.00
2023-02-12T11:18:46.797Z,97689.00
2023-02-12T11:19:45.765Z,97689.00
2023-02-12T11:20:46.775Z,97689.00
2023-02-12T11:21:45.768Z,97693.00
2023-02-12T11:22:46.759Z,97689.00
2023-02-12T11:23:46.749Z,97687.00
2023-02-12T11:24:45.733Z,97689.00
2023-02-12T11:25:45.737Z,97685.00
2023-02-12T11:26:46.739Z,97683.00
2023-02-12T11:27:45.727Z,97681.00
2023-02-12T11:28:46.895Z,97679.00
2023-02-12T11:29:48.040Z,97677.00
2023-02-12T11:30:45.744Z,97679.00
2023-02-12T11:31:45.786Z,97679.00
2023-02-12T11:32:46.694Z,97677.00
2023-02-12T11:33:46.661Z,97679.00
2023-02-12T11:34:46.700Z,97677.00
2023-02-12T11:35:46.670Z,97679.00
2023-02-12T11:36:46.723Z,97673.00
2023-02-12T11:37:46.656Z,97675.00
2023-02-12T11:38:46.636Z,97673.00
2023-02-12T11:39:45.629Z,97671.00
2023-02-12T11:40:45.613Z,97669.00
2023-02-12T11:41:45.615Z,97671.00
2023-02-12T11:42:45.615Z,97669.00
2023-02-12T11:43:46.623Z,97669.00
2023-02-12T11:44:45.600Z,97669.00